createdAt,value
2022-10-13T00:02:22.254Z,11.75
2022-10-13T00:19:41.226Z,10.63
2022-10-13T00:23:26.923Z,13.68
2022-10-13T00:34:02.511Z,11.70
2022-10-13T00:40:21.435Z,12.75
2022-10-13T00:51:02.630Z,12.98
2022-10-13T00:54:28.770Z,11.85
2022-10-13T01:01:33.064Z,12.27
2022-10-13T01:04:47.291Z,11.23
2022-10-13T01:08:02.075Z,12.00
2022-10-13T01:15:54.268Z,10.55
2022-10-13T01:18:41.637Z,10.57
2022-10-13T01:22:09.444Z,10.82
2022-10-13T01:44:10.542Z,8.90
2022-10-13T01:47:40.696Z,9.70
2022-10-13T01:51:11.767Z,8.85
2022-10-13T02:05:31.691Z,10.82
2022-10-13T02:12:48.946Z,9.30
2022-10-13T02:16:35.041Z,9.93
2022-10-13T02:19:59.922Z,10.70
2022-10-13T02:26:19.027Z,9.13
2022-10-13T02:29:40.559Z,9.88
2022-10-13T02:32:28.915Z,9.43
2022-10-13T02:35:07.200Z,10.35
2022-10-13T02:38:09.202Z,9.93
2022-10-13T02:41:20.150Z,10.13
2022-10-13T02:47:52.504Z,9.15
2022-10-13T02:50:29.833Z,8.02
2022-10-13T02:53:33.234Z,10.05
2022-10-13T02:56:32.580Z,9.68
2022-10-13T02:59:23.142Z,9.52
2022-10-13T03:01:50.198Z,9.57
2022-10-13T03:04:17.150Z,10.93
2022-10-13T03:06:43.867Z,9.25
2022-10-13T03:09:12.711Z,9.23
2022-10-13T03:11:41.758Z,9.23
2022-10-13T03:14:08.578Z,8.82
2022-10-13T03:16:35.300Z,9.20
2022-10-13T03:19:02.058Z,10.00
2022-10-13T03:21:28.937Z,7.85
2022-10-13T03:23:56.154Z,8.68
2022-10-13T03:26:24.794Z,8.63
2022-10-13T03:28:52.355Z,8.23
2022-10-13T03:31:19.776Z,8.18
2022-10-13T03:33:47.320Z,8.32
2022-10-13T03:36:14.678Z,9.18
2022-10-13T03:38:42.493Z,8.30
2022-10-13T03:41:13.230Z,9.20
2022-10-13T03:43:40.949Z,8.98
2022-10-13T03:46:13.452Z,8.35
2022-10-13T03:48:41.388Z,8.63
2022-10-13T03:51:10.541Z,8.95
2022-10-13T03:53:41.952Z,8.23
2022-10-13T03:56:16.298Z,8.48
2022-10-13T03:58:55.524Z,9.32
2022-10-13T04:01:24.343Z,10.52
2022-10-13T04:03:53.930Z,7.53
2022-10-13T04:06:21.521Z,8.60
2022-10-13T04:08:49.065Z,7.88
2022-10-13T04:11:17.370Z,6.57
2022-10-13T04:13:47.472Z,8.32
2022-10-13T04:16:15.680Z,7.43
2022-10-13T04:18:44.796Z,8.30
2022-10-13T04:21:17.915Z,8.38
2022-10-13T04:23:44.799Z,8.07
2022-10-13T04:26:21.893Z,8.45
2022-10-13T04:28:50.653Z,8.98
2022-10-13T04:31:21.240Z,8.68
2022-10-13T04:33:49.290Z,10.23
2022-10-13T04:36:17.150Z,6.57
2022-10-13T04:38:45.361Z,8.63
2022-10-13T04:41:33.150Z,10.52
2022-10-13T04:44:03.143Z,7.97
2022-10-13T04:46:30.949Z,7.88
2022-10-13T04:48:58.120Z,9.82
2022-10-13T04:51:32.618Z,8.55
2022-10-13T04:54:01.545Z,7.50
2022-10-13T04:56:29.468Z,8.43
2022-10-13T04:59:01.990Z,10.43
2022-10-13T05:01:31.975Z,8.77
2022-10-13T05:04:01.682Z,8.68
2022-10-13T05:06:34.599Z,7.38
2022-10-13T05:09:02.311Z,9.13
2022-10-13T05:11:30.631Z,8.95
2022-10-13T05:13:59.342Z,9.57
2022-10-13T05:16:27.278Z,10.90
2022-10-13T05:18:56.009Z,12.18
2022-10-13T05:21:27.114Z,11.40
2022-10-13T05:23:56.274Z,8.35
2022-10-13T05:26:29.028Z,12.20
2022-10-13T05:29:01.607Z,12.48
2022-10-13T05:31:33.145Z,11.38
2022-10-13T05:34:01.426Z,11.57
2022-10-13T05:36:31.479Z,13.10
2022-10-13T05:39:00.971Z,12.68
2022-10-13T05:41:31.017Z,10.52
2022-10-13T05:44:01.932Z,10.68
2022-10-13T05:46:29.520Z,11.75
2022-10-13T06:10:11.163Z,10.38
2022-10-13T08:10:25.165Z,18.20
2022-10-13T08:34:38.589Z,18.05
2022-10-13T11:10:56.707Z,8.90
2022-10-13T11:20:36.663Z,7.10
2022-10-13T11:23:13.968Z,7.68
2022-10-13T11:30:10.519Z,6.78
2022-10-13T11:38:17.769Z,7.40
2022-10-13T11:51:16.251Z,6.68
2022-10-13T12:16:54.277Z,6.95
2022-10-13T12:51:26.785Z,7.65
2022-10-13T12:58:42.190Z,6.93
2022-10-13T13:04:54.881Z,7.18
2022-10-13T13:07:52.220Z,7.00
2022-10-13T13:29:47.405Z,7.07
2022-10-13T13:32:19.007Z,7.40
2022-10-13T13:34:47.580Z,7.70
2022-10-13T13:37:24.049Z,6.78
2022-10-13T13:39:51.091Z,7.53
2022-10-13T13:42:17.959Z,7.20
2022-10-13T13:44:48.045Z,7.63
2022-10-13T13:47:22.695Z,7.70
2022-10-13T13:49:52.307Z,7.00
2022-10-13T13:52:20.367Z,7.82
2022-10-13T13:54:51.111Z,6.55
2022-10-13T13:57:19.924Z,6.28
2022-10-13T13:59:48.214Z,7.00
2022-10-13T14:02:19.207Z,7.22
2022-10-13T14:04:46.412Z,7.90
2022-10-13T14:07:13.941Z,9.70
2022-10-13T14:09:42.314Z,7.15
2022-10-13T14:12:10.296Z,6.50
2022-10-13T14:14:38.239Z,7.18
2022-10-13T14:17:07.603Z,7.18
2022-10-13T14:19:40.752Z,6.75
2022-10-13T14:22:10.902Z,7.35
2022-10-13T14:24:39.375Z,7.50
2022-10-13T14:27:09.259Z,7.35
2022-10-13T14:29:37.516Z,7.70
2022-10-13T14:32:05.148Z,6.90
2022-10-13T14:34:34.086Z,7.75
2022-10-13T14:37:03.772Z,7.10
2022-10-13T14:39:31.830Z,6.93
2022-10-13T14:42:01.641Z,7.65
2022-10-13T15:04:50.134Z,6.90
2022-10-13T15:35:03.358Z,6.25
2022-10-13T17:14:44.273Z,10.68
2022-10-13T17:56:12.269Z,10.45
2022-10-13T17:59:13.772Z,10.85
2022-10-13T18:26:33.224Z,13.00
2022-10-13T18:29:19.580Z,12.48
2022-10-13T18:54:22.829Z,13.27
2022-10-13T18:57:18.926Z,14.60
2022-10-13T19:00:43.063Z,13.75
